createdAt,value
2023-03-15T00:01:26.561Z,21.4
2023-03-15T00:07:20.744Z,21.4
2023-03-15T00:12:42.077Z,21.4
2023-03-15T00:18:20.167Z,21.4
2023-03-15T00:23:57.614Z,21.4
2023-03-15T00:29:50.755Z,21.4
2023-03-15T00:35:44.113Z,21.4
2023-03-15T00:41:37.257Z,21.5
2023-03-15T00:47:14.056Z,21.5
2023-03-15T00:52:36.260Z,21.5
2023-03-15T00:57:42.760Z,21.5
2023-03-15T01:03:20.476Z,21.5
2023-03-15T01:08:42.846Z,21.5
2023-03-15T01:14:36.184Z,21.5
2023-03-15T01:20:28.912Z,21.5
2023-03-15T01:26:21.752Z,21.5
2023-03-15T01:32:14.000Z,21.5
2023-03-15T01:37:51.344Z,21.5
2023-03-15T01:43:43.321Z,21.6
2023-03-15T01:49:20.691Z,21.5
2023-03-15T01:54:57.795Z,21.5
2023-03-15T02:00:35.761Z,21.6
2023-03-15T02:06:13.056Z,21.6
2023-03-15T02:11:50.157Z,21.6
2023-03-15T02:17:27.504Z,21.6
2023-03-15T02:23:05.459Z,21.6
2023-03-15T02:28:59.284Z,21.6
2023-03-15T02:34:36.704Z,21.6
2023-03-15T02:39:58.873Z,21.6
2023-03-15T02:45:52.205Z,21.6
2023-03-15T02:51:44.447Z,21.6
2023-03-15T02:57:22.102Z,21.6
2023-03-15T03:02:59.229Z,21.6
2023-03-15T03:08:51.597Z,21.6
2023-03-15T03:14:28.721Z,21.6
2023-03-15T03:20:06.299Z,21.6
2023-03-15T03:25:43.031Z,21.6
2023-03-15T03:31:22.019Z,21.6
2023-03-15T03:37:14.939Z,21.6
2023-03-15T03:42:52.313Z,21.6
2023-03-15T03:48:45.441Z,21.6
2023-03-15T03:54:38.695Z,21.6
2023-03-15T04:00:16.082Z,21.6
2023-03-15T04:05:53.187Z,21.6
2023-03-15T04:11:29.886Z,21.6
2023-03-15T04:17:23.418Z,21.6
2023-03-15T04:23:00.834Z,21.6
2023-03-15T04:28:38.225Z,21.6
2023-03-15T04:34:30.638Z,21.6
2023-03-15T04:40:23.486Z,21.6
2023-03-15T04:46:15.352Z,21.6
2023-03-15T04:51:36.657Z,21.6
2023-03-15T04:57:30.058Z,21.6
2023-03-15T05:02:53.773Z,21.6
2023-03-15T05:08:47.482Z,21.6
2023-03-15T05:14:43.566Z,21.7
2023-03-15T05:20:20.479Z,21.8
2023-03-15T05:25:57.347Z,21.8
2023-03-15T05:31:50.973Z,21.8
2023-03-15T05:37:27.645Z,21.7
2023-03-15T05:43:20.046Z,21.6
2023-03-15T05:49:12.766Z,21.5
2023-03-15T05:55:08.026Z,21.6
2023-03-15T06:01:01.001Z,21.5
2023-03-15T06:06:23.787Z,21.4
2023-03-15T06:12:16.729Z,21.3
2023-03-15T06:17:54.630Z,21.3
2023-03-15T06:23:49.389Z,21.3
2023-03-15T06:29:41.938Z,21.2
2023-03-15T06:41:29.745Z,21.1
2023-03-15T06:47:23.102Z,21.1
2023-03-15T06:53:31.770Z,21
2023-03-15T06:59:25.099Z,26
2023-03-15T07:05:19.379Z,28.4
2023-03-15T07:10:56.434Z,27.3
2023-03-15T07:16:50.474Z,32.9
2023-03-15T07:22:51.029Z,33.4
2023-03-15T07:28:59.440Z,30.9
2023-03-15T07:34:38.214Z,29.9
2023-03-15T07:40:33.533Z,29.3
2023-03-15T07:46:27.788Z,29.8
2023-03-15T07:52:22.160Z,31.4
2023-03-15T07:58:20.270Z,33.7
2023-03-15T08:03:59.053Z,34.8
2023-03-15T08:09:26.525Z,35.6
2023-03-15T08:15:03.936Z,35.9
2023-03-15T08:20:43.660Z,36.6
2023-03-15T08:26:37.161Z,37.1
2023-03-15T08:32:30.427Z,37.6
2023-03-15T08:38:24.261Z,39.3
2023-03-15T08:44:19.797Z,39.4
2023-03-15T08:50:31.224Z,40
2023-03-15T08:56:23.617Z,41.1
2023-03-15T09:02:20.871Z,42.4
2023-03-15T09:08:00.716Z,41.6
2023-03-15T09:13:54.274Z,41.1
2023-03-15T09:19:46.584Z,41.8
2023-03-15T09:26:02.544Z,40.6
2023-03-15T09:31:39.870Z,39.8
2023-03-15T09:37:37.807Z,39.4
2023-03-15T09:43:29.364Z,39.5
2023-03-15T09:49:21.854Z,40.3
2023-03-15T09:54:59.821Z,41.2
2023-03-15T10:00:38.055Z,40.5
2023-03-15T10:06:31.996Z,40.2
2023-03-15T10:12:25.591Z,39.7
2023-03-15T10:18:18.293Z,39.2
2023-03-15T10:24:11.525Z,38.9
2023-03-15T10:30:04.713Z,39.8
2023-03-15T10:36:24.141Z,40.1
2023-03-15T10:42:21.134Z,39.9
2023-03-15T10:48:34.002Z,39.4
2023-03-15T10:54:28.405Z,38.7
2023-03-15T11:00:34.482Z,38.2
2023-03-15T11:06:29.313Z,37.8
2023-03-15T11:12:22.633Z,37.3
2023-03-15T11:18:15.885Z,37
2023-03-15T11:24:08.445Z,35.6
2023-03-15T11:30:11.455Z,33.9
2023-03-15T11:35:50.024Z,33.8
2023-03-15T11:42:06.902Z,33.6
2023-03-15T11:47:59.399Z,33.4
2023-03-15T11:53:20.794Z,33.1
2023-03-15T11:59:00.191Z,32.8
2023-03-15T12:04:55.121Z,32.4
2023-03-15T12:10:54.842Z,31.9
2023-03-15T12:16:33.191Z,30.6
2023-03-15T12:22:26.622Z,29.4
2023-03-15T12:28:00.497Z,28.5
2023-03-15T12:33:40.142Z,27.8
2023-03-15T12:39:00.848Z,27.1
2023-03-15T12:44:41.848Z,26.6
2023-03-15T12:50:20.250Z,26.1
2023-03-15T12:56:07.877Z,25.7
2023-03-15T13:01:46.294Z,25.3
2023-03-15T13:07:25.949Z,25
2023-03-15T13:13:11.616Z,24.7
2023-03-15T13:18:48.821Z,24.4
2023-03-15T13:24:34.308Z,24.2
2023-03-15T13:30:10.644Z,23.9
2023-03-15T13:35:48.403Z,23.8
2023-03-15T13:41:25.534Z,23.6
2023-03-15T13:47:02.890Z,23.4
2023-03-15T13:52:41.054Z,23.3
2023-03-15T13:58:44.836Z,23.1
2023-03-15T14:04:23.647Z,23
2023-03-15T14:10:00.739Z,22.9
2023-03-15T14:15:22.400Z,22.8
2023-03-15T14:21:16.736Z,22.7
2023-03-15T14:26:54.945Z,22.6
2023-03-15T14:32:31.675Z,22.5
2023-03-15T14:38:25.081Z,22.4
2023-03-15T14:44:18.255Z,22.4
2023-03-15T14:50:07.711Z,22.3
2023-03-15T14:56:00.180Z,22.3
2023-03-15T15:01:55.876Z,22.2
2023-03-15T15:07:47.797Z,22.1
2023-03-15T15:13:54.830Z,22.1
2023-03-15T15:20:07.285Z,21.9
2023-03-15T15:26:13.361Z,21.8
2023-03-15T15:31:59.423Z,21.6
2023-03-15T15:37:54.724Z,21.5
2023-03-15T15:43:49.865Z,21.4
2023-03-15T15:49:26.412Z,21.3
2023-03-15T15:55:18.559Z,21.2
2023-03-15T16:07:06.048Z,21
2023-03-15T16:12:58.535Z,21
2023-03-15T16:18:51.744Z,20.9
2023-03-15T16:24:44.135Z,20.9
2023-03-15T16:30:36.591Z,20.9
2023-03-15T16:36:40.481Z,20.9
2023-03-15T16:42:02.157Z,20.8
2023-03-15T16:47:55.487Z,20.8
2023-03-15T16:53:48.030Z,20.8
2023-03-15T17:00:03.245Z,20.8
2023-03-15T17:05:56.592Z,20.8
2023-03-15T17:11:49.707Z,20.8
2023-03-15T17:17:41.893Z,20.8
2023-03-15T17:23:37.921Z,20.7
2023-03-15T17:29:31.725Z,20.4
2023-03-15T17:35:23.816Z,20.1
2023-03-15T17:41:15.980Z,19.8
2023-03-15T17:46:53.742Z,19.6
2023-03-15T17:52:14.885Z,19.4
2023-03-15T17:57:59.525Z,19.3
2023-03-15T18:04:00.883Z,19.1
2023-03-15T18:10:07.950Z,19
2023-03-15T18:16:00.420Z,18.9
2023-03-15T18:21:53.301Z,18.8
2023-03-15T18:27:45.737Z,18.8
2023-03-15T18:39:16.981Z,18.6
2023-03-15T18:44:54.369Z,18.6
2023-03-15T18:50:54.589Z,18.5
2023-03-15T18:56:31.831Z,18.4
2023-03-15T19:01:56.232Z,18.4
2023-03-15T19:07:34.086Z,18.4
2023-03-15T19:12:56.506Z,18.4
2023-03-15T19:18:49.012Z,18.3
2023-03-15T19:24:10.214Z,18.3
2023-03-15T19:29:47.805Z,18.3
2023-03-15T19:35:41.295Z,18.3
2023-03-15T19:41:02.834Z,18.2
2023-03-15T19:46:56.027Z,18.2
2023-03-15T19:52:18.211Z,18.1
2023-03-15T19:57:57.986Z,18.1
2023-03-15T20:03:38.844Z,18.1
2023-03-15T20:09:17.322Z,18.1
2023-03-15T20:15:11.653Z,18.1
2023-03-15T20:20:49.600Z,18.1
2023-03-15T20:26:11.682Z,18.2
2023-03-15T20:31:50.613Z,18.3
2023-03-15T20:37:44.909Z,18.4
2023-03-15T20:43:07.063Z,18.8
2023-03-15T20:48:44.480Z,19.1
2023-03-15T20:53:52.035Z,19.7
2023-03-15T20:59:15.756Z,20.3
2023-03-15T21:04:06.826Z,20.9
2023-03-15T21:10:00.148Z,21.5
2023-03-15T21:15:55.462Z,22.2
2023-03-15T21:21:35.451Z,22.7
2023-03-15T21:27:10.168Z,23
2023-03-15T21:32:48.811Z,23.3
2023-03-15T21:38:40.921Z,23.6
2023-03-15T21:44:18.143Z,23.7
2023-03-15T21:49:24.974Z,23.9
2023-03-15T21:54:46.592Z,23.9
2023-03-15T22:00:24.956Z,24
2023-03-15T22:06:04.533Z,24.1
2023-03-15T22:11:26.173Z,24.1
2023-03-15T22:17:29.905Z,24.2
2023-03-15T22:23:07.095Z,24.2
2023-03-15T22:28:28.966Z,24.3
2023-03-15T22:34:06.696Z,24.2
2023-03-15T22:39:28.169Z,24.2
2023-03-15T22:45:05.267Z,24.2
2023-03-15T22:50:42.935Z,24.3
2023-03-15T22:56:19.727Z,24.2
2023-03-15T23:01:41.691Z,24.3
2023-03-15T23:07:35.187Z,24.2
2023-03-15T23:12:52.907Z,24.2
2023-03-15T23:17:59.713Z,24.2
2023-03-15T23:23:22.760Z,24.2
2023-03-15T23:27:57.634Z,24.1
2023-03-15T23:33:20.135Z,24.1
2023-03-15T23:38:59.651Z,24.1
2023-03-15T23:44:37.935Z,24.1
2023-03-15T23:50:31.815Z,24.1
2023-03-15T23:56:24.869Z,24.1
